sensor_id;sensor_type;location;lat;lon;timestamp;P1;durP1;ratioP1;P2;durP2;ratioP2
10582;SDS011;33679;51.218;6.786;2023-04-08T00:01:55;18.57;;;10.30;;
10582;SDS011;33679;51.218;6.786;2023-04-08T00:05:09;20.33;;;11.00;;
10582;SDS011;33679;51.218;6.786;2023-04-08T00:07:44;17.67;;;10.93;;
10582;SDS011;33679;51.218;6.786;2023-04-08T00:10:20;16.67;;;11.17;;
10582;SDS011;33679;51.218;6.786;2023-04-08T00:12:55;18.10;;;11.30;;
10582;SDS011;33679;51.218;6.786;2023-04-08T00:18:54;15.13;;;9.90;;
10582;SDS011;33679;51.218;6.786;2023-04-08T00:21:30;15.70;;;10.43;;
10582;SDS011;33679;51.218;6.786;2023-04-08T00:27:55;13.93;;;9.30;;
10582;SDS011;33679;51.218;6.786;2023-04-08T00:30:29;16.03;;;9.73;;
10582;SDS011;33679;51.218;6.786;2023-04-08T00:33:25;16.87;;;10.10;;
10582;SDS011;33679;51.218;6.786;2023-04-08T00:36:29;14.20;;;9.20;;
10582;SDS011;33679;51.218;6.786;2023-04-08T00:39:01;15.43;;;9.50;;
10582;SDS011;33679;51.218;6.786;2023-04-08T00:41:36;23.07;;;13.03;;
10582;SDS011;33679;51.218;6.786;2023-04-08T00:44:16;24.10;;;14.40;;
10582;SDS011;33679;51.218;6.786;2023-04-08T00:46:49;32.00;;;16.00;;
10582;SDS011;33679;51.218;6.786;2023-04-08T00:49:23;19.40;;;12.50;;
10582;SDS011;33679;51.218;6.786;2023-04-08T00:51:58;13.07;;;8.90;;
10582;SDS011;33679;51.218;6.786;2023-04-08T00:54:33;14.43;;;9.17;;
10582;SDS011;33679;51.218;6.786;2023-04-08T00:57:11;17.87;;;9.87;;
10582;SDS011;33679;51.218;6.786;2023-04-08T01:00:02;16.23;;;9.87;;
10582;SDS011;33679;51.218;6.786;2023-04-08T01:03:13;13.73;;;9.87;;
10582;SDS011;33679;51.218;6.786;2023-04-08T01:12:50;15.40;;;9.63;;
10582;SDS011;33679;51.218;6.786;2023-04-08T01:19:39;20.27;;;11.13;;
10582;SDS011;33679;51.218;6.786;2023-04-08T01:22:51;23.33;;;11.70;;
10582;SDS011;33679;51.218;6.786;2023-04-08T01:25:35;19.57;;;11.63;;
10582;SDS011;33679;51.218;6.786;2023-04-08T01:28:12;21.57;;;12.43;;
10582;SDS011;33679;51.218;6.786;2023-04-08T01:30:48;20.03;;;11.97;;
10582;SDS011;33679;51.218;6.786;2023-04-08T01:33:22;25.80;;;14.43;;
10582;SDS011;33679;51.218;6.786;2023-04-08T01:36:02;25.87;;;14.20;;
10582;SDS011;33679;51.218;6.786;2023-04-08T01:38:37;24.40;;;14.03;;
10582;SDS011;33679;51.218;6.786;2023-04-08T01:41:12;24.97;;;15.43;;
10582;SDS011;33679;51.218;6.786;2023-04-08T01:43:52;24.80;;;14.50;;
10582;SDS011;33679;51.218;6.786;2023-04-08T01:46:31;30.03;;;15.80;;
10582;SDS011;33679;51.218;6.786;2023-04-08T01:49:06;25.50;;;14.30;;
10582;SDS011;33679;51.218;6.786;2023-04-08T01:51:42;24.80;;;14.30;;
10582;SDS011;33679;51.218;6.786;2023-04-08T01:57:16;26.67;;;13.90;;
10582;SDS011;33679;51.218;6.786;2023-04-08T01:59:58;31.17;;;16.63;;
10582;SDS011;33679;51.218;6.786;2023-04-08T02:02:50;36.23;;;18.70;;
10582;SDS011;33679;51.218;6.786;2023-04-08T02:05:26;33.83;;;17.30;;
10582;SDS011;33679;51.218;6.786;2023-04-08T02:08:02;30.90;;;16.30;;
10582;SDS011;33679;51.218;6.786;2023-04-08T02:10:40;36.40;;;17.57;;
10582;SDS011;33679;51.218;6.786;2023-04-08T02:13:20;32.93;;;17.27;;
10582;SDS011;33679;51.218;6.786;2023-04-08T02:16:09;36.47;;;18.13;;
10582;SDS011;33679;51.218;6.786;2023-04-08T02:19:06;32.07;;;16.57;;
10582;SDS011;33679;51.218;6.786;2023-04-08T02:24:44;30.40;;;15.30;;
10582;SDS011;33679;51.218;6.786;2023-04-08T02:27:18;32.47;;;17.00;;
10582;SDS011;33679;51.218;6.786;2023-04-08T02:29:52;28.70;;;16.30;;
10582;SDS011;33679;51.218;6.786;2023-04-08T02:32:30;30.73;;;16.37;;
10582;SDS011;33679;51.218;6.786;2023-04-08T02:35:06;31.20;;;16.23;;
10582;SDS011;33679;51.218;6.786;2023-04-08T02:37:59;21.70;;;13.03;;
10582;SDS011;33679;51.218;6.786;2023-04-08T02:41:30;27.53;;;16.17;;
10582;SDS011;33679;51.218;6.786;2023-04-08T02:48:04;30.10;;;15.07;;
10582;SDS011;33679;51.218;6.786;2023-04-08T02:50:52;31.23;;;15.30;;
10582;SDS011;33679;51.218;6.786;2023-04-08T02:53:25;29.70;;;16.10;;
10582;SDS011;33679;51.218;6.786;2023-04-08T02:56:27;30.10;;;16.70;;
10582;SDS011;33679;51.218;6.786;2023-04-08T03:08:31;31.13;;;16.17;;
10582;SDS011;33679;51.218;6.786;2023-04-08T03:11:58;47.30;;;24.60;;
10582;SDS011;33679;51.218;6.786;2023-04-08T03:14:44;37.20;;;20.40;;
10582;SDS011;33679;51.218;6.786;2023-04-08T03:17:16;48.00;;;23.00;;
10582;SDS011;33679;51.218;6.786;2023-04-08T03:23:22;41.30;;;20.60;;
10582;SDS011;33679;51.218;6.786;2023-04-08T03:29:16;34.83;;;19.73;;
10582;SDS011;33679;51.218;6.786;2023-04-08T03:35:25;34.77;;;18.17;;
10582;SDS011;33679;51.218;6.786;2023-04-08T03:38:07;34.07;;;18.50;;
10582;SDS011;33679;51.218;6.786;2023-04-08T03:41:06;32.23;;;17.30;;
10582;SDS011;33679;51.218;6.786;2023-04-08T03:43:38;33.13;;;17.83;;
10582;SDS011;33679;51.218;6.786;2023-04-08T03:46:12;36.83;;;18.80;;
10582;SDS011;33679;51.218;6.786;2023-04-08T03:48:53;32.87;;;16.97;;
10582;SDS011;33679;51.218;6.786;2023-04-08T03:52:05;34.00;;;17.17;;
10582;SDS011;33679;51.218;6.786;2023-04-08T03:54:41;31.40;;;16.70;;
10582;SDS011;33679;51.218;6.786;2023-04-08T03:57:45;35.00;;;16.70;;
10582;SDS011;33679;51.218;6.786;2023-04-08T04:00:50;29.73;;;16.33;;
10582;SDS011;33679;51.218;6.786;2023-04-08T04:03:29;31.00;;;16.70;;
10582;SDS011;33679;51.218;6.786;2023-04-08T04:06:02;31.43;;;17.43;;
10582;SDS011;33679;51.218;6.786;2023-04-08T04:08:35;35.53;;;18.77;;
10582;SDS011;33679;51.218;6.786;2023-04-08T04:11:08;34.80;;;18.07;;
10582;SDS011;33679;51.218;6.786;2023-04-08T04:13:42;33.43;;;18.03;;
10582;SDS011;33679;51.218;6.786;2023-04-08T04:16:14;34.43;;;17.37;;
10582;SDS011;33679;51.218;6.786;2023-04-08T04:18:47;36.00;;;18.97;;
10582;SDS011;33679;51.218;6.786;2023-04-08T04:21:19;34.00;;;17.03;;
10582;SDS011;33679;51.218;6.786;2023-04-08T04:23:55;30.90;;;16.73;;
10582;SDS011;33679;51.218;6.786;2023-04-08T04:26:58;34.23;;;18.40;;
10582;SDS011;33679;51.218;6.786;2023-04-08T04:32:42;29.90;;;17.37;;
10582;SDS011;33679;51.218;6.786;2023-04-08T04:35:14;30.97;;;17.00;;
10582;SDS011;33679;51.218;6.786;2023-04-08T04:38:46;37.40;;;18.43;;
10582;SDS011;33679;51.218;6.786;2023-04-08T04:41:20;33.17;;;17.70;;
10582;SDS011;33679;51.218;6.786;2023-04-08T04:44:37;35.33;;;18.63;;
10582;SDS011;33679;51.218;6.786;2023-04-08T04:54:40;34.43;;;17.97;;
10582;SDS011;33679;51.218;6.786;2023-04-08T04:57:14;31.73;;;17.23;;
10582;SDS011;33679;51.218;6.786;2023-04-08T04:59:49;36.90;;;17.93;;
10582;SDS011;33679;51.218;6.786;2023-04-08T05:02:52;34.67;;;18.97;;
10582;SDS011;33679;51.218;6.786;2023-04-08T05:05:30;28.70;;;16.27;;
10582;SDS011;33679;51.218;6.786;2023-04-08T05:08:05;32.57;;;18.10;;
10582;SDS011;33679;51.218;6.786;2023-04-08T05:10:39;38.37;;;20.00;;
10582;SDS011;33679;51.218;6.786;2023-04-08T05:13:30;32.30;;;18.27;;
10582;SDS011;33679;51.218;6.786;2023-04-08T05:16:03;33.07;;;18.53;;
10582;SDS011;33679;51.218;6.786;2023-04-08T05:18:41;35.27;;;18.03;;
10582;SDS011;33679;51.218;6.786;2023-04-08T05:21:14;30.00;;;17.10;;
10582;SDS011;33679;51.218;6.786;2023-04-08T05:23:48;33.40;;;17.73;;
10582;SDS011;33679;51.218;6.786;2023-04-08T05:26:37;32.33;;;16.77;;
10582;SDS011;33679;51.218;6.786;2023-04-08T05:32:56;33.17;;;17.10;;
10582;SDS011;33679;51.218;6.786;2023-04-08T05:36:23;33.70;;;18.17;;
10582;SDS011;33679;51.218;6.786;2023-04-08T05:39:38;33.47;;;19.30;;
10582;SDS011;33679;51.218;6.786;2023-04-08T05:45:36;34.13;;;17.73;;
10582;SDS011;33679;51.218;6.786;2023-04-08T05:48:52;36.30;;;18.10;;
10582;SDS011;33679;51.218;6.786;2023-04-08T05:51:53;36.50;;;18.20;;
10582;SDS011;33679;51.218;6.786;2023-04-08T05:57:50;38.07;;;20.00;;
10582;SDS011;33679;51.218;6.786;2023-04-08T06:00:34;33.93;;;18.83;;
10582;SDS011;33679;51.218;6.786;2023-04-08T06:03:39;42.43;;;20.00;;
10582;SDS011;33679;51.218;6.786;2023-04-08T06:15:37;42.87;;;21.17;;
10582;SDS011;33679;51.218;6.786;2023-04-08T06:18:33;38.07;;;19.40;;
10582;SDS011;33679;51.218;6.786;2023-04-08T06:22:06;39.97;;;20.50;;
10582;SDS011;33679;51.218;6.786;2023-04-08T06:25:27;41.93;;;20.07;;
10582;SDS011;33679;51.218;6.786;2023-04-08T06:29:04;38.07;;;18.13;;
10582;SDS011;33679;51.218;6.786;2023-04-08T06:32:36;41.10;;;19.33;;
10582;SDS011;33679;51.218;6.786;2023-04-08T06:38:16;39.30;;;20.63;;
10582;SDS011;33679;51.218;6.786;2023-04-08T06:41:08;42.60;;;19.60;;
10582;SDS011;33679;51.218;6.786;2023-04-08T06:50:49;46.27;;;20.37;;
10582;SDS011;33679;51.218;6.786;2023-04-08T06:53:37;43.93;;;20.97;;
10582;SDS011;33679;51.218;6.786;2023-04-08T06:56:15;50.67;;;22.97;;
10582;SDS011;33679;51.218;6.786;2023-04-08T06:59:03;47.83;;;25.67;;
10582;SDS011;33679;51.218;6.786;2023-04-08T07:01:38;48.93;;;24.40;;
10582;SDS011;33679;51.218;6.786;2023-04-08T07:04:15;47.80;;;23.57;;
10582;SDS011;33679;51.218;6.786;2023-04-08T07:06:48;59.33;;;26.67;;
10582;SDS011;33679;51.218;6.786;2023-04-08T07:12:35;64.37;;;28.87;;
10582;SDS011;33679;51.218;6.786;2023-04-08T07:15:09;70.27;;;30.53;;
10582;SDS011;33679;51.218;6.786;2023-04-08T07:17:43;76.67;;;31.83;;
10582;SDS011;33679;51.218;6.786;2023-04-08T07:23:14;71.00;;;30.50;;
10582;SDS011;33679;51.218;6.786;2023-04-08T07:25:48;79.97;;;32.20;;
10582;SDS011;33679;51.218;6.786;2023-04-08T07:28:21;63.03;;;29.27;;
10582;SDS011;33679;51.218;6.786;2023-04-08T07:30:56;75.20;;;30.00;;
10582;SDS011;33679;51.218;6.786;2023-04-08T07:34:00;72.33;;;31.67;;
10582;SDS011;33679;51.218;6.786;2023-04-08T07:36:50;84.73;;;31.90;;
10582;SDS011;33679;51.218;6.786;2023-04-08T07:40:08;80.97;;;29.70;;
10582;SDS011;33679;51.218;6.786;2023-04-08T07:42:41;81.53;;;33.90;;
10582;SDS011;33679;51.218;6.786;2023-04-08T07:45:31;81.37;;;30.13;;
10582;SDS011;33679;51.218;6.786;2023-04-08T07:48:10;77.03;;;30.53;;
10582;SDS011;33679;51.218;6.786;2023-04-08T07:51:06;60.47;;;28.67;;
10582;SDS011;33679;51.218;6.786;2023-04-08T07:53:49;72.43;;;30.57;;
10582;SDS011;33679;51.218;6.786;2023-04-08T07:56:32;65.83;;;28.60;;
10582;SDS011;33679;51.218;6.786;2023-04-08T07:59:21;69.67;;;29.40;;
10582;SDS011;33679;51.218;6.786;2023-04-08T08:01:59;62.53;;;28.20;;
10582;SDS011;33679;51.218;6.786;2023-04-08T08:04:38;54.50;;;26.00;;
10582;SDS011;33679;51.218;6.786;2023-04-08T08:07:24;60.57;;;26.63;;
10582;SDS011;33679;51.218;6.786;2023-04-08T08:10:31;54.10;;;25.10;;
10582;SDS011;33679;51.218;6.786;2023-04-08T08:13:06;43.70;;;20.80;;
10582;SDS011;33679;51.218;6.786;2023-04-08T08:15:39;43.27;;;20.47;;
10582;SDS011;33679;51.218;6.786;2023-04-08T08:18:16;36.27;;;19.90;;
10582;SDS011;33679;51.218;6.786;2023-04-08T08:20:53;39.73;;;19.90;;
10582;SDS011;33679;51.218;6.786;2023-04-08T08:23:28;40.83;;;18.30;;
10582;SDS011;33679;51.218;6.786;2023-04-08T08:26:01;31.67;;;17.13;;
10582;SDS011;33679;51.218;6.786;2023-04-08T08:28:35;33.60;;;16.90;;
10582;SDS011;33679;51.218;6.786;2023-04-08T08:31:08;31.33;;;17.17;;
10582;SDS011;33679;51.218;6.786;2023-04-08T08:33:41;33.77;;;18.00;;
10582;SDS011;33679;51.218;6.786;2023-04-08T08:36:14;39.13;;;18.27;;
10582;SDS011;33679;51.218;6.786;2023-04-08T08:38:48;37.83;;;20.53;;
10582;SDS011;33679;51.218;6.786;2023-04-08T08:41:23;33.43;;;16.77;;
10582;SDS011;33679;51.218;6.786;2023-04-08T08:43:56;34.83;;;17.93;;
10582;SDS011;33679;51.218;6.786;2023-04-08T08:46:31;39.60;;;20.20;;
10582;SDS011;33679;51.218;6.786;2023-04-08T08:49:15;44.10;;;21.70;;
10582;SDS011;33679;51.218;6.786;2023-04-08T08:51:54;41.90;;;20.90;;
10582;SDS011;33679;51.218;6.786;2023-04-08T08:54:44;54.40;;;24.80;;
10582;SDS011;33679;51.218;6.786;2023-04-08T08:57:24;47.67;;;24.47;;
10582;SDS011;33679;51.218;6.786;2023-04-08T09:00:00;54.90;;;26.53;;
10582;SDS011;33679;51.218;6.786;2023-04-08T09:02:35;66.80;;;29.33;;
10582;SDS011;33679;51.218;6.786;2023-04-08T09:05:10;71.10;;;30.60;;
10582;SDS011;33679;51.218;6.786;2023-04-08T09:07:51;71.27;;;30.63;;
10582;SDS011;33679;51.218;6.786;2023-04-08T09:10:32;83.97;;;34.83;;
10582;SDS011;33679;51.218;6.786;2023-04-08T09:16:43;81.20;;;32.63;;
10582;SDS011;33679;51.218;6.786;2023-04-08T09:24:28;79.43;;;33.90;;
10582;SDS011;33679;51.218;6.786;2023-04-08T09:27:10;75.70;;;32.10;;
10582;SDS011;33679;51.218;6.786;2023-04-08T09:29:57;78.23;;;32.10;;
10582;SDS011;33679;51.218;6.786;2023-04-08T09:38:51;74.43;;;31.50;;
10582;SDS011;33679;51.218;6.786;2023-04-08T09:41:31;67.93;;;31.20;;
10582;SDS011;33679;51.218;6.786;2023-04-08T09:44:08;67.67;;;31.30;;
10582;SDS011;33679;51.218;6.786;2023-04-08T09:47:04;70.13;;;32.20;;
10582;SDS011;33679;51.218;6.786;2023-04-08T09:50:32;58.57;;;27.43;;
10582;SDS011;33679;51.218;6.786;2023-04-08T10:00:44;51.10;;;25.47;;
10582;SDS011;33679;51.218;6.786;2023-04-08T10:11:31;56.53;;;28.03;;
10582;SDS011;33679;51.218;6.786;2023-04-08T10:14:18;47.53;;;25.10;;
10582;SDS011;33679;51.218;6.786;2023-04-08T10:23:14;52.30;;;23.50;;
10582;SDS011;33679;51.218;6.786;2023-04-08T10:25:57;47.87;;;23.90;;
10582;SDS011;33679;51.218;6.786;2023-04-08T10:29:31;47.60;;;24.70;;
10582;SDS011;33679;51.218;6.786;2023-04-08T10:32:06;52.23;;;23.53;;
10582;SDS011;33679;51.218;6.786;2023-04-08T10:45:08;55.97;;;27.33;;
10582;SDS011;33679;51.218;6.786;2023-04-08T10:48:24;50.57;;;25.07;;
10582;SDS011;33679;51.218;6.786;2023-04-08T10:51:54;67.53;;;31.67;;
10582;SDS011;33679;51.218;6.786;2023-04-08T10:54:28;46.43;;;23.73;;
10582;SDS011;33679;51.218;6.786;2023-04-08T10:57:02;56.67;;;27.23;;
10582;SDS011;33679;51.218;6.786;2023-04-08T10:59:36;47.30;;;24.20;;
10582;SDS011;33679;51.218;6.786;2023-04-08T11:02:12;46.60;;;23.37;;
10582;SDS011;33679;51.218;6.786;2023-04-08T11:05:15;46.53;;;25.10;;
10582;SDS011;33679;51.218;6.786;2023-04-08T11:07:50;54.17;;;25.97;;
10582;SDS011;33679;51.218;6.786;2023-04-08T11:10:24;44.13;;;26.10;;
10582;SDS011;33679;51.218;6.786;2023-04-08T11:12:57;49.10;;;24.93;;
10582;SDS011;33679;51.218;6.786;2023-04-08T11:15:30;44.97;;;23.70;;
10582;SDS011;33679;51.218;6.786;2023-04-08T11:18:03;56.43;;;26.77;;
10582;SDS011;33679;51.218;6.786;2023-04-08T11:20:36;49.43;;;24.53;;
10582;SDS011;33679;51.218;6.786;2023-04-08T11:23:12;49.57;;;23.40;;
10582;SDS011;33679;51.218;6.786;2023-04-08T11:25:45;58.47;;;26.77;;
10582;SDS011;33679;51.218;6.786;2023-04-08T11:28:28;49.40;;;24.33;;
10582;SDS011;33679;51.218;6.786;2023-04-08T11:31:01;47.50;;;25.50;;
10582;SDS011;33679;51.218;6.786;2023-04-08T11:33:33;44.03;;;24.70;;
10582;SDS011;33679;51.218;6.786;2023-04-08T11:36:06;49.47;;;23.60;;
10582;SDS011;33679;51.218;6.786;2023-04-08T11:38:41;44.73;;;24.43;;
10582;SDS011;33679;51.218;6.786;2023-04-08T11:41:16;42.60;;;23.07;;
10582;SDS011;33679;51.218;6.786;2023-04-08T11:43:52;38.43;;;21.00;;
10582;SDS011;33679;51.218;6.786;2023-04-08T11:46:35;22.73;;;13.97;;
10582;SDS011;33679;51.218;6.786;2023-04-08T11:49:10;18.70;;;11.80;;
10582;SDS011;33679;51.218;6.786;2023-04-08T11:51:54;21.77;;;13.47;;
10582;SDS011;33679;51.218;6.786;2023-04-08T11:54:32;24.90;;;13.07;;
10582;SDS011;33679;51.218;6.786;2023-04-08T11:57:16;18.60;;;10.53;;
10582;SDS011;33679;51.218;6.786;2023-04-08T12:00:02;12.73;;;8.90;;
10582;SDS011;33679;51.218;6.786;2023-04-08T12:02:41;17.70;;;8.63;;
10582;SDS011;33679;51.218;6.786;2023-04-08T12:05:16;15.30;;;8.50;;
10582;SDS011;33679;51.218;6.786;2023-04-08T12:07:49;12.43;;;8.63;;
10582;SDS011;33679;51.218;6.786;2023-04-08T12:10:22;13.20;;;8.73;;
10582;SDS011;33679;51.218;6.786;2023-04-08T12:12:55;9.87;;;6.90;;
10582;SDS011;33679;51.218;6.786;2023-04-08T12:15:28;13.47;;;7.60;;
10582;SDS011;33679;51.218;6.786;2023-04-08T12:18:04;10.70;;;8.00;;
10582;SDS011;33679;51.218;6.786;2023-04-08T12:20:36;11.17;;;7.43;;
10582;SDS011;33679;51.218;6.786;2023-04-08T12:23:11;11.17;;;7.30;;
10582;SDS011;33679;51.218;6.786;2023-04-08T12:25:47;14.40;;;6.70;;
10582;SDS011;33679;51.218;6.786;2023-04-08T12:28:20;8.27;;;6.57;;
10582;SDS011;33679;51.218;6.786;2023-04-08T12:30:53;9.30;;;6.17;;
10582;SDS011;33679;51.218;6.786;2023-04-08T12:33:25;9.20;;;6.17;;
10582;SDS011;33679;51.218;6.786;2023-04-08T12:35:58;9.00;;;6.93;;
10582;SDS011;33679;51.218;6.786;2023-04-08T12:38:30;8.80;;;5.87;;
10582;SDS011;33679;51.218;6.786;2023-04-08T12:41:07;10.10;;;5.60;;
10582;SDS011;33679;51.218;6.786;2023-04-08T12:43:40;9.00;;;6.73;;
10582;SDS011;33679;51.218;6.786;2023-04-08T12:46:12;8.83;;;6.23;;
10582;SDS011;33679;51.218;6.786;2023-04-08T12:48:44;9.60;;;6.30;;
10582;SDS011;33679;51.218;6.786;2023-04-08T12:51:17;25.80;;;14.37;;
10582;SDS011;33679;51.218;6.786;2023-04-08T12:53:49;9.80;;;6.40;;
10582;SDS011;33679;51.218;6.786;2023-04-08T12:56:23;11.90;;;7.87;;
10582;SDS011;33679;51.218;6.786;2023-04-08T12:58:58;11.67;;;7.00;;
10582;SDS011;33679;51.218;6.786;2023-04-08T13:01:33;8.73;;;6.80;;
10582;SDS011;33679;51.218;6.786;2023-04-08T13:04:06;7.97;;;6.10;;
10582;SDS011;33679;51.218;6.786;2023-04-08T13:07:19;24.30;;;12.03;;
10582;SDS011;33679;51.218;6.786;2023-04-08T13:09:52;17.87;;;9.60;;
10582;SDS011;33679;51.218;6.786;2023-04-08T13:12:28;8.83;;;5.60;;
10582;SDS011;33679;51.218;6.786;2023-04-08T13:15:01;10.40;;;7.00;;
10582;SDS011;33679;51.218;6.786;2023-04-08T13:17:34;6.27;;;4.90;;
10582;SDS011;33679;51.218;6.786;2023-04-08T13:20:08;6.53;;;4.70;;
10582;SDS011;33679;51.218;6.786;2023-04-08T13:22:41;6.27;;;5.20;;
10582;SDS011;33679;51.218;6.786;2023-04-08T13:25:17;8.60;;;5.07;;
10582;SDS011;33679;51.218;6.786;2023-04-08T13:27:58;10.10;;;6.30;;
10582;SDS011;33679;51.218;6.786;2023-04-08T13:30:57;12.90;;;6.30;;
10582;SDS011;33679;51.218;6.786;2023-04-08T13:33:29;9.23;;;6.53;;
10582;SDS011;33679;51.218;6.786;2023-04-08T13:36:03;6.20;;;5.27;;
10582;SDS011;33679;51.218;6.786;2023-04-08T13:38:41;9.63;;;6.00;;
10582;SDS011;33679;51.218;6.786;2023-04-08T13:41:15;6.40;;;5.30;;
10582;SDS011;33679;51.218;6.786;2023-04-08T13:43:52;6.77;;;5.50;;
10582;SDS011;33679;51.218;6.786;2023-04-08T13:46:26;7.27;;;5.70;;
10582;SDS011;33679;51.218;6.786;2023-04-08T13:49:00;11.80;;;8.33;;
10582;SDS011;33679;51.218;6.786;2023-04-08T13:51:35;10.40;;;7.80;;
10582;SDS011;33679;51.218;6.786;2023-04-08T13:54:09;9.80;;;7.80;;
10582;SDS011;33679;51.218;6.786;2023-04-08T13:56:49;13.30;;;8.17;;
10582;SDS011;33679;51.218;6.786;2023-04-08T13:59:23;12.00;;;8.20;;
10582;SDS011;33679;51.218;6.786;2023-04-08T14:01:55;10.67;;;7.30;;
10582;SDS011;33679;51.218;6.786;2023-04-08T14:04:29;9.73;;;7.80;;
10582;SDS011;33679;51.218;6.786;2023-04-08T14:07:03;10.53;;;8.10;;
10582;SDS011;33679;51.218;6.786;2023-04-08T14:09:37;9.70;;;7.43;;
10582;SDS011;33679;51.218;6.786;2023-04-08T14:12:10;10.83;;;8.17;;
10582;SDS011;33679;51.218;6.786;2023-04-08T14:14:45;10.07;;;8.13;;
10582;SDS011;33679;51.218;6.786;2023-04-08T14:17:17;10.10;;;7.57;;
10582;SDS011;33679;51.218;6.786;2023-04-08T14:19:50;9.97;;;8.17;;
10582;SDS011;33679;51.218;6.786;2023-04-08T14:22:25;15.10;;;10.60;;
10582;SDS011;33679;51.218;6.786;2023-04-08T14:24:57;12.20;;;9.40;;
10582;SDS011;33679;51.218;6.786;2023-04-08T14:27:29;13.03;;;9.10;;
10582;SDS011;33679;51.218;6.786;2023-04-08T14:30:04;12.13;;;9.47;;
10582;SDS011;33679;51.218;6.786;2023-04-08T14:32:37;14.80;;;10.30;;
10582;SDS011;33679;51.218;6.786;2023-04-08T14:35:10;12.20;;;9.27;;
10582;SDS011;33679;51.218;6.786;2023-04-08T14:37:47;16.10;;;9.77;;
10582;SDS011;33679;51.218;6.786;2023-04-08T14:40:20;14.67;;;8.90;;
10582;SDS011;33679;51.218;6.786;2023-04-08T14:42:53;16.70;;;10.17;;
10582;SDS011;33679;51.218;6.786;2023-04-08T14:45:27;13.40;;;10.20;;
10582;SDS011;33679;51.218;6.786;2023-04-08T14:48:00;14.40;;;10.37;;
10582;SDS011;33679;51.218;6.786;2023-04-08T14:50:33;12.10;;;9.70;;
10582;SDS011;33679;51.218;6.786;2023-04-08T14:53:05;14.30;;;10.40;;
10582;SDS011;33679;51.218;6.786;2023-04-08T14:55:38;14.60;;;10.27;;
10582;SDS011;33679;51.218;6.786;2023-04-08T14:58:11;16.83;;;12.30;;
10582;SDS011;33679;51.218;6.786;2023-04-08T15:00:45;16.53;;;11.10;;
10582;SDS011;33679;51.218;6.786;2023-04-08T15:03:17;16.10;;;12.10;;
10582;SDS011;33679;51.218;6.786;2023-04-08T15:05:59;19.80;;;12.00;;
10582;SDS011;33679;51.218;6.786;2023-04-08T15:08:32;15.37;;;12.27;;
10582;SDS011;33679;51.218;6.786;2023-04-08T15:11:07;16.80;;;11.73;;
10582;SDS011;33679;51.218;6.786;2023-04-08T15:13:40;19.37;;;13.23;;
10582;SDS011;33679;51.218;6.786;2023-04-08T15:16:16;14.80;;;10.67;;
10582;SDS011;33679;51.218;6.786;2023-04-08T15:19:01;13.77;;;11.30;;
10582;SDS011;33679;51.218;6.786;2023-04-08T15:21:43;14.03;;;10.53;;
10582;SDS011;33679;51.218;6.786;2023-04-08T15:24:28;14.17;;;10.00;;
10582;SDS011;33679;51.218;6.786;2023-04-08T15:27:05;10.63;;;9.00;;
10582;SDS011;33679;51.218;6.786;2023-04-08T15:29:39;10.50;;;9.03;;
10582;SDS011;33679;51.218;6.786;2023-04-08T15:35:49;10.20;;;8.20;;
10582;SDS011;33679;51.218;6.786;2023-04-08T15:38:22;14.53;;;10.30;;
10582;SDS011;33679;51.218;6.786;2023-04-08T15:40:56;12.40;;;9.63;;
10582;SDS011;33679;51.218;6.786;2023-04-08T15:43:33;12.27;;;9.57;;
10582;SDS011;33679;51.218;6.786;2023-04-08T15:46:08;12.40;;;9.30;;
10582;SDS011;33679;51.218;6.786;2023-04-08T15:48:41;11.53;;;9.43;;
10582;SDS011;33679;51.218;6.786;2023-04-08T15:51:24;10.97;;;9.23;;
10582;SDS011;33679;51.218;6.786;2023-04-08T15:54:23;12.43;;;9.80;;
10582;SDS011;33679;51.218;6.786;2023-04-08T15:56:56;14.30;;;10.00;;
10582;SDS011;33679;51.218;6.786;2023-04-08T15:59:29;12.37;;;10.10;;
10582;SDS011;33679;51.218;6.786;2023-04-08T16:02:02;13.13;;;9.87;;
10582;SDS011;33679;51.218;6.786;2023-04-08T16:04:35;14.30;;;12.33;;
10582;SDS011;33679;51.218;6.786;2023-04-08T16:07:09;14.57;;;10.47;;
10582;SDS011;33679;51.218;6.786;2023-04-08T16:09:43;14.63;;;11.20;;
10582;SDS011;33679;51.218;6.786;2023-04-08T16:12:17;19.93;;;12.27;;
10582;SDS011;33679;51.218;6.786;2023-04-08T16:14:50;16.47;;;12.53;;
10582;SDS011;33679;51.218;6.786;2023-04-08T16:17:26;17.13;;;12.70;;
10582;SDS011;33679;51.218;6.786;2023-04-08T16:19:58;96.90;;;76.23;;
10582;SDS011;33679;51.218;6.786;2023-04-08T16:22:34;21.07;;;16.47;;
10582;SDS011;33679;51.218;6.786;2023-04-08T16:25:08;25.53;;;18.13;;
10582;SDS011;33679;51.218;6.786;2023-04-08T16:27:41;60.60;;;42.77;;
10582;SDS011;33679;51.218;6.786;2023-04-08T16:30:14;54.60;;;39.87;;
10582;SDS011;33679;51.218;6.786;2023-04-08T16:32:46;26.60;;;19.53;;
10582;SDS011;33679;51.218;6.786;2023-04-08T16:35:20;66.43;;;41.57;;
10582;SDS011;33679;51.218;6.786;2023-04-08T16:37:54;80.20;;;49.20;;
10582;SDS011;33679;51.218;6.786;2023-04-08T16:40:27;127.53;;;72.57;;
10582;SDS011;33679;51.218;6.786;2023-04-08T16:43:02;106.70;;;62.93;;
10582;SDS011;33679;51.218;6.786;2023-04-08T16:45:38;23.50;;;14.77;;
10582;SDS011;33679;51.218;6.786;2023-04-08T16:48:11;36.90;;;28.50;;
10582;SDS011;33679;51.218;6.786;2023-04-08T16:50:43;117.00;;;65.90;;
10582;SDS011;33679;51.218;6.786;2023-04-08T16:53:17;32.07;;;20.73;;
10582;SDS011;33679;51.218;6.786;2023-04-08T16:55:50;95.47;;;56.33;;
10582;SDS011;33679;51.218;6.786;2023-04-08T16:58:22;23.30;;;16.53;;
10582;SDS011;33679;51.218;6.786;2023-04-08T17:00:55;22.73;;;15.00;;
10582;SDS011;33679;51.218;6.786;2023-04-08T17:03:29;19.63;;;14.80;;
10582;SDS011;33679;51.218;6.786;2023-04-08T17:06:06;21.90;;;14.50;;
10582;SDS011;33679;51.218;6.786;2023-04-08T17:08:41;22.17;;;16.07;;
10582;SDS011;33679;51.218;6.786;2023-04-08T17:11:14;21.50;;;15.63;;
10582;SDS011;33679;51.218;6.786;2023-04-08T17:13:47;21.10;;;15.87;;
10582;SDS011;33679;51.218;6.786;2023-04-08T17:16:20;19.00;;;14.17;;
10582;SDS011;33679;51.218;6.786;2023-04-08T17:18:53;21.37;;;15.70;;
10582;SDS011;33679;51.218;6.786;2023-04-08T17:21:25;18.23;;;13.67;;
10582;SDS011;33679;51.218;6.786;2023-04-08T17:24:06;22.80;;;14.93;;
10582;SDS011;33679;51.218;6.786;2023-04-08T17:26:41;21.50;;;14.90;;
10582;SDS011;33679;51.218;6.786;2023-04-08T17:29:14;22.00;;;14.97;;
10582;SDS011;33679;51.218;6.786;2023-04-08T17:31:47;15.43;;;11.83;;
10582;SDS011;33679;51.218;6.786;2023-04-08T17:34:23;15.37;;;12.27;;
10582;SDS011;33679;51.218;6.786;2023-04-08T17:36:56;16.83;;;11.77;;
10582;SDS011;33679;51.218;6.786;2023-04-08T17:39:30;19.10;;;13.20;;
10582;SDS011;33679;51.218;6.786;2023-04-08T17:42:03;17.73;;;12.57;;
10582;SDS011;33679;51.218;6.786;2023-04-08T17:44:35;20.83;;;13.87;;
10582;SDS011;33679;51.218;6.786;2023-04-08T17:47:11;19.47;;;12.87;;
10582;SDS011;33679;51.218;6.786;2023-04-08T17:49:45;15.20;;;10.50;;
10582;SDS011;33679;51.218;6.786;2023-04-08T17:52:18;102.37;;;75.53;;
10582;SDS011;33679;51.218;6.786;2023-04-08T17:54:56;34.30;;;23.50;;
10582;SDS011;33679;51.218;6.786;2023-04-08T17:57:35;19.33;;;12.20;;
10582;SDS011;33679;51.218;6.786;2023-04-08T18:00:14;64.00;;;45.40;;
10582;SDS011;33679;51.218;6.786;2023-04-08T18:02:47;26.07;;;15.70;;
10582;SDS011;33679;51.218;6.786;2023-04-08T18:05:21;29.10;;;16.03;;
10582;SDS011;33679;51.218;6.786;2023-04-08T18:11:56;33.57;;;19.30;;